BTL weather

W K Kellogg Airport
Battle Creek, Michigan, United States

Public forecast

Using degrees Fahrenheit for public forecast. Weather courtesy of forecast.io.

METAR (pilot weather report)

Retrieved 2019/05/20 00:16 UTC (22 minutes ago):

KBTL 200016Z 26007KT 10SM FEW030 SCT047 BKN060 18/16 A2966 RMK AO2 LTG DSNT NE-S T01830161

TAF (pilot weather forecast)

Forecast is more than 12 hours old.

Retrieved 2019/05/19 00:46 UTC (24 hours ago):

TAF KBTL 192344Z 2000/2024 21010KT 5SM -TSRA BR BKN025CB FM200030 22010KT P6SM SCT025 BKN100 FM200600 27012KT P6SM BKN025 FM201000 26015G25KT P6SM OVC015 FM201400 29015G25KT P6SM OVC015 FM202100 30015G25KT P6SM BKN035